PWSweather.com
Personal Weather Stations
Station Observations
STPETERS
BroadstairsGB

BroadstairsGB

Lat: 51.37, Lon: 1.423

Elevation: 141

Station Type: WH1081

Latest ConditionsUpdated 11:30:02 PM GMT Friday, Oct 31, 2014
Currently Today's Max Today's Min Today's Average
Temperature 60.8°F16.0°C 65.5°F18.6°C 58.1°F14.5°C 61.1°F16.2°C
Dew Point 57.9°F14.4°C 62.7°F17.1°C 55.3°F12.9°C 58.0°F14.4°C
Winds 16.5 mph S26.6 kmh S 17.3 mph S27.8 kmh S - 12.7 mph 20.4 kmh
Wind Gusts 18.3 mph29.5 kmh 23.5 mph37.8 kmh - -
Humidity 90% 97% 70% 90%
Pressure 29.99 in1015.6 mb 30.09 in1019.0 mb 29.99 in1015.6 mb -
Precipitation - 0.01 in0.3 mm - -
Hour Temp Dew Point Humidity Winds Wind Gusts Pressure Precip Precip Rate Daily Precip Total
11:30 PM 60.8°F16.0°C 57.9°F14.4°C 90% 16.5 mph S26.6 kmh S 18.3 mph29.5 kmh 29.99 in1015.6 mb 0.00 in0.0 mm 0.00 in/hr0.0 mm/hr 0.01 in0.3 mm
11:15 PM 60.8°F16.0°C 57.6°F14.2°C 89% 17.1 mph S27.5 kmh S 21.3 mph34.3 kmh 29.99 in1015.6 mb 0.00 in0.0 mm 0.00 in/hr0.0 mm/hr 0.01 in0.3 mm
11:00 PM 61.0°F16.1°C 57.7°F14.3°C 89% 15.4 mph S24.8 kmh S 20.6 mph33.2 kmh 29.99 in1015.6 mb 0.00 in0.0 mm 0.00 in/hr0.0 mm/hr 0.01 in0.3 mm
10:45 PM 61.2°F16.2°C 57.6°F14.2°C 88% 16.3 mph S26.2 kmh S 20.6 mph33.2 kmh 29.99 in1015.6 mb 0.00 in0.0 mm 0.00 in/hr0.0 mm/hr 0.01 in0.3 mm
10:30 PM 61.3°F16.3°C 57.5°F14.2°C 87% 16.6 mph S26.7 kmh S 23.5 mph37.8 kmh 29.99 in1015.6 mb 0.00 in0.0 mm 0.00 in/hr0.0 mm/hr 0.01 in0.3 mm
10:15 PM 61.3°F16.3°C 57.1°F13.9°C 86% 16.0 mph S25.7 kmh S 19.0 mph30.6 kmh 29.99 in1015.6 mb 0.00 in0.0 mm 0.00 in/hr0.0 mm/hr 0.01 in0.3 mm
10:00 PM 61.2°F16.2°C 56.6°F13.7°C 85% 13.8 mph S22.2 kmh S 18.3 mph29.5 kmh 29.99 in1015.6 mb 0.00 in0.0 mm 0.00 in/hr0.0 mm/hr 0.01 in0.3 mm
09:45 PM 61.5°F16.4°C 56.7°F13.7°C 84% 15.0 mph SSE24.1 kmh SSE 17.4 mph28.0 kmh 30.00 in1015.9 mb 0.00 in0.0 mm 0.00 in/hr0.0 mm/hr 0.01 in0.3 mm
09:30 PM 61.7°F16.5°C 56.2°F13.4°C 82% 15.3 mph S24.6 kmh S 19.7 mph31.7 kmh 30.00 in1015.9 mb 0.00 in0.0 mm 0.00 in/hr0.0 mm/hr 0.01 in0.3 mm
09:15 PM 61.9°F16.6°C 56.3°F13.5°C 82% 16.1 mph S25.9 kmh S 20.6 mph33.2 kmh 30.00 in1015.9 mb 0.00 in0.0 mm 0.00 in/hr0.0 mm/hr 0.01 in0.3 mm
09:00 PM 62.1°F16.7°C 56.2°F13.4°C 81% 15.6 mph S25.1 kmh S 22.8 mph36.7 kmh 30.01 in1016.3 mb 0.00 in0.0 mm 0.00 in/hr0.0 mm/hr 0.01 in0.3 mm
08:45 PM 62.2°F16.8°C 55.7°F13.2°C 79% 16.2 mph S26.1 kmh S 19.0 mph30.6 kmh 30.00 in1015.9 mb 0.00 in0.0 mm 0.00 in/hr0.0 mm/hr 0.01 in0.3 mm
08:30 PM 62.2°F16.8°C 55.3°F12.9°C 78% 14.9 mph S24.0 kmh S 19.7 mph31.7 kmh 30.00 in1015.9 mb 0.00 in0.0 mm 0.00 in/hr0.0 mm/hr 0.01 in0.3 mm
08:15 PM 62.6°F17.0°C 55.7°F13.2°C 78% 15.1 mph S24.3 kmh S 22.1 mph35.6 kmh 30.00 in1015.9 mb 0.00 in0.0 mm 0.00 in/hr0.0 mm/hr 0.01 in0.3 mm
08:00 PM 62.2°F16.8°C 55.7°F13.2°C 79% 13.0 mph S20.9 kmh S 15.2 mph24.5 kmh 30.00 in1015.9 mb 0.00 in0.0 mm 0.00 in/hr0.0 mm/hr 0.01 in0.3 mm
07:45 PM 62.4°F16.9°C 55.8°F13.2°C 79% 13.2 mph S21.2 kmh S 17.4 mph28.0 kmh 30.00 in1015.9 mb 0.00 in0.0 mm 0.00 in/hr0.0 mm/hr 0.01 in0.3 mm
07:30 PM 62.4°F16.9°C 55.8°F13.2°C 79% 13.6 mph S21.9 kmh S 16.8 mph27.0 kmh 30.00 in1015.9 mb 0.00 in0.0 mm 0.00 in/hr0.0 mm/hr 0.01 in0.3 mm
07:15 PM 62.6°F17.0°C 56.4°F13.6°C 80% 13.1 mph S21.1 kmh S 16.8 mph27.0 kmh 30.00 in1015.9 mb 0.00 in0.0 mm 0.00 in/hr0.0 mm/hr 0.01 in0.3 mm
07:00 PM 62.4°F16.9°C 56.5°F13.6°C 81% 13.0 mph S20.9 kmh S 15.9 mph25.6 kmh 30.00 in1015.9 mb 0.00 in0.0 mm 0.00 in/hr0.0 mm/hr 0.01 in0.3 mm
06:45 PM 62.8°F17.1°C 56.9°F13.8°C 81% 14.2 mph S22.9 kmh S 17.4 mph28.0 kmh 30.01 in1016.3 mb 0.00 in0.0 mm 0.00 in/hr0.0 mm/hr 0.01 in0.3 mm
06:30 PM 63.0°F17.2°C 57.1°F13.9°C 81% 14.5 mph S23.3 kmh S 20.6 mph33.2 kmh 30.00 in1015.9 mb 0.00 in0.0 mm 0.00 in/hr0.0 mm/hr 0.01 in0.3 mm
06:15 PM 62.8°F17.1°C 57.9°F14.4°C 84% 13.6 mph S21.9 kmh S 18.3 mph29.5 kmh 30.01 in1016.3 mb 0.00 in0.0 mm 0.00 in/hr0.0 mm/hr 0.01 in0.3 mm
06:00 PM 62.6°F17.0°C 58.4°F14.7°C 86% 12.6 mph S20.3 kmh S 15.2 mph24.5 kmh 30.01 in1016.3 mb 0.00 in0.0 mm 0.00 in/hr0.0 mm/hr 0.01 in0.3 mm
05:45 PM 62.4°F16.9°C 58.2°F14.6°C 86% 10.9 mph S17.5 kmh S 13.0 mph20.9 kmh 30.01 in1016.3 mb 0.00 in0.0 mm 0.00 in/hr0.0 mm/hr 0.01 in0.3 mm
05:30 PM 62.4°F16.9°C 57.5°F14.2°C 84% 10.8 mph S17.4 kmh S 13.6 mph21.9 kmh 30.01 in1016.3 mb 0.00 in0.0 mm 0.00 in/hr0.0 mm/hr 0.01 in0.3 mm
05:15 PM 62.6°F17.0°C 57.0°F13.9°C 82% 9.0 mph S14.5 kmh S 11.4 mph18.3 kmh 30.02 in1016.6 mb 0.00 in0.0 mm 0.00 in/hr0.0 mm/hr 0.01 in0.3 mm
05:00 PM 62.8°F17.1°C 56.2°F13.4°C 79% 10.7 mph S17.2 kmh S 12.1 mph19.5 kmh 30.01 in1016.3 mb 0.00 in0.0 mm 0.00 in/hr0.0 mm/hr 0.01 in0.3 mm
04:45 PM 62.8°F17.1°C 56.5°F13.6°C 80% 12.1 mph S19.5 kmh S 14.5 mph23.3 kmh 30.01 in1016.3 mb 0.00 in0.0 mm 0.00 in/hr0.0 mm/hr 0.01 in0.3 mm
04:30 PM 62.8°F17.1°C 56.5°F13.6°C 80% 11.0 mph S17.7 kmh S 13.6 mph21.9 kmh 30.02 in1016.6 mb 0.00 in0.0 mm 0.00 in/hr0.0 mm/hr 0.01 in0.3 mm
04:15 PM 63.1°F17.3°C 56.5°F13.6°C 79% 11.0 mph S17.7 kmh S 15.2 mph24.5 kmh 30.02 in1016.6 mb 0.00 in0.0 mm 0.00 in/hr0.0 mm/hr 0.01 in0.3 mm
04:00 PM 63.7°F17.6°C 56.4°F13.6°C 77% 10.5 mph S16.9 kmh S 13.0 mph20.9 kmh 30.02 in1016.6 mb 0.00 in0.0 mm 0.00 in/hr0.0 mm/hr 0.01 in0.3 mm
03:45 PM 64.2°F17.9°C 56.5°F13.6°C 76% 12.6 mph S20.3 kmh S 16.8 mph27.0 kmh 30.02 in1016.6 mb 0.00 in0.0 mm 0.00 in/hr0.0 mm/hr 0.01 in0.3 mm
03:30 PM 64.6°F18.1°C 56.1°F13.4°C 74% 12.6 mph S20.3 kmh S 17.4 mph28.0 kmh 30.02 in1016.6 mb 0.00 in0.0 mm 0.00 in/hr0.0 mm/hr 0.01 in0.3 mm
03:15 PM 64.9°F18.3°C 56.1°F13.4°C 73% 12.4 mph S20.0 kmh S 14.5 mph23.3 kmh 30.02 in1016.6 mb 0.00 in0.0 mm 0.00 in/hr0.0 mm/hr 0.01 in0.3 mm
03:00 PM 65.5°F18.6°C 55.5°F13.1°C 70% 13.4 mph S21.6 kmh S 17.4 mph28.0 kmh 30.03 in1016.9 mb 0.00 in0.0 mm 0.00 in/hr0.0 mm/hr 0.01 in0.3 mm
02:45 PM 65.3°F18.5°C 56.1°F13.4°C 72% 12.5 mph S20.1 kmh S 15.2 mph24.5 kmh 30.03 in1016.9 mb 0.00 in0.0 mm 0.00 in/hr0.0 mm/hr 0.01 in0.3 mm
02:30 PM 65.3°F18.5°C 56.8°F13.8°C 74% 12.8 mph S20.6 kmh S 17.4 mph28.0 kmh 30.03 in1016.9 mb 0.00 in0.0 mm 0.00 in/hr0.0 mm/hr 0.01 in0.3 mm
02:15 PM 65.3°F18.5°C 59.3°F15.2°C 81% 11.7 mph S18.8 kmh S 15.2 mph24.5 kmh 30.04 in1017.3 mb 0.00 in0.0 mm 0.00 in/hr0.0 mm/hr 0.01 in0.3 mm
02:00 PM 64.0°F17.8°C 59.5°F15.3°C 85% 12.1 mph S19.5 kmh S 15.2 mph24.5 kmh 30.03 in1016.9 mb 0.00 in0.0 mm 0.00 in/hr0.0 mm/hr 0.01 in0.3 mm
01:45 PM 64.0°F17.8°C 59.5°F15.3°C 85% 11.6 mph SSE18.7 kmh SSE 15.9 mph25.6 kmh 30.04 in1017.3 mb 0.00 in0.0 mm 0.00 in/hr0.0 mm/hr 0.01 in0.3 mm
01:30 PM 64.0°F17.8°C 59.8°F15.4°C 86% 14.1 mph S22.7 kmh S 16.8 mph27.0 kmh 30.04 in1017.3 mb 0.00 in0.0 mm 0.00 in/hr0.0 mm/hr 0.01 in0.3 mm
01:15 PM 64.0°F17.8°C 60.1°F15.6°C 87% 15.3 mph S24.6 kmh S 17.4 mph28.0 kmh 30.04 in1017.3 mb 0.00 in0.0 mm 0.00 in/hr0.0 mm/hr 0.01 in0.3 mm
01:00 PM 64.0°F17.8°C 60.1°F15.6°C 87% 16.9 mph S27.2 kmh S 20.6 mph33.2 kmh 30.04 in1017.3 mb 0.00 in0.0 mm 0.00 in/hr0.0 mm/hr 0.01 in0.3 mm
12:45 PM 64.0°F17.8°C 60.8°F16.0°C 89% 17.3 mph S27.8 kmh S 21.3 mph34.3 kmh 30.05 in1017.6 mb 0.00 in0.0 mm 0.00 in/hr0.0 mm/hr 0.01 in0.3 mm
12:30 PM 64.0°F17.8°C 61.4°F16.3°C 91% 16.2 mph S26.1 kmh S 19.0 mph30.6 kmh 30.05 in1017.6 mb 0.00 in0.0 mm 0.00 in/hr0.0 mm/hr 0.01 in0.3 mm
12:15 PM 63.7°F17.6°C 61.9°F16.6°C 94% 16.0 mph S25.7 kmh S 20.6 mph33.2 kmh 30.06 in1017.9 mb 0.00 in0.0 mm 0.00 in/hr0.0 mm/hr 0.01 in0.3 mm
12:00 PM 63.5°F17.5°C 62.1°F16.7°C 95% 15.9 mph S25.6 kmh S 19.0 mph30.6 kmh 30.06 in1017.9 mb 0.00 in0.0 mm 0.00 in/hr0.0 mm/hr 0.01 in0.3 mm
11:45 AM 63.9°F17.7°C 62.7°F17.1°C 96% 14.5 mph S23.3 kmh S 16.8 mph27.0 kmh 30.07 in1018.3 mb 0.00 in0.0 mm 0.00 in/hr0.0 mm/hr 0.01 in0.3 mm
11:30 AM 63.5°F17.5°C 62.7°F17.1°C 97% 13.8 mph S22.2 kmh S 19.7 mph31.7 kmh 30.07 in1018.3 mb 0.00 in0.0 mm 0.00 in/hr0.0 mm/hr 0.01 in0.3 mm
11:15 AM 63.3°F17.4°C 62.5°F16.9°C 97% 12.4 mph S20.0 kmh S 15.2 mph24.5 kmh 30.08 in1018.6 mb 0.00 in0.0 mm 0.00 in/hr0.0 mm/hr 0.01 in0.3 mm
11:00 AM 63.0°F17.2°C 62.1°F16.7°C 97% 12.0 mph S19.3 kmh S 15.2 mph24.5 kmh 30.08 in1018.6 mb 0.00 in0.0 mm 0.00 in/hr0.0 mm/hr 0.01 in0.3 mm
10:45 AM 62.6°F17.0°C 61.8°F16.6°C 97% 9.5 mph S15.3 kmh S 12.1 mph19.5 kmh 30.09 in1019.0 mb 0.01 in0.3 mm 0.00 in/hr0.0 mm/hr 0.01 in0.3 mm
10:30 AM 62.2°F16.8°C 61.4°F16.3°C 97% 10.5 mph SSE16.9 kmh SSE 13.6 mph21.9 kmh 30.09 in1019.0 mb 0.01 in0.3 mm 0.00 in/hr0.0 mm/hr 0.01 in0.3 mm
10:15 AM 61.5°F16.4°C 60.7°F15.9°C 97% 9.1 mph S14.6 kmh S 12.1 mph19.5 kmh 30.09 in1019.0 mb 0.01 in0.3 mm 0.00 in/hr0.0 mm/hr 0.01 in0.3 mm
10:00 AM 61.0°F16.1°C 60.1°F15.6°C 97% 11.2 mph S18.0 kmh S 13.6 mph21.9 kmh 30.09 in1019.0 mb 0.01 in0.3 mm 0.01 in/hr0.3 mm/hr 0.01 in0.3 mm
09:45 AM 60.6°F15.9°C 59.8°F15.4°C 97% 8.6 mph S13.8 kmh S 12.1 mph19.5 kmh 30.09 in1019.0 mb 0.00 in0.0 mm 0.00 in/hr0.0 mm/hr 0.00 in0.0 mm
09:30 AM 60.4°F15.8°C 59.6°F15.3°C 97% 8.9 mph S14.3 kmh S 12.1 mph19.5 kmh 30.09 in1019.0 mb 0.00 in0.0 mm 0.00 in/hr0.0 mm/hr 0.00 in0.0 mm
09:15 AM 59.9°F15.5°C 59.1°F15.1°C 97% 9.2 mph S14.8 kmh S 11.4 mph18.3 kmh 30.09 in1019.0 mb 0.00 in0.0 mm 0.00 in/hr0.0 mm/hr 0.00 in0.0 mm
09:00 AM 59.5°F15.3°C 58.7°F14.8°C 97% 9.4 mph S15.1 kmh S 12.1 mph19.5 kmh 30.09 in1019.0 mb 0.00 in0.0 mm 0.00 in/hr0.0 mm/hr 0.00 in0.0 mm
08:45 AM 59.2°F15.1°C 58.3°F14.6°C 97% 8.7 mph S14.0 kmh S 11.4 mph18.3 kmh 30.09 in1019.0 mb 0.00 in0.0 mm 0.00 in/hr0.0 mm/hr 0.00 in0.0 mm
08:30 AM 59.2°F15.1°C 58.3°F14.6°C 97% 9.7 mph S15.6 kmh S 11.4 mph18.3 kmh 30.09 in1019.0 mb 0.00 in0.0 mm 0.00 in/hr0.0 mm/hr 0.00 in0.0 mm
08:15 AM 59.0°F15.0°C 58.2°F14.6°C 97% 9.8 mph S15.8 kmh S 13.0 mph20.9 kmh 30.08 in1018.6 mb 0.00 in0.0 mm 0.00 in/hr0.0 mm/hr 0.00 in0.0 mm
08:00 AM 58.6°F14.8°C 57.8°F14.3°C 97% 10.2 mph S16.4 kmh S 13.0 mph20.9 kmh 30.08 in1018.6 mb 0.00 in0.0 mm 0.00 in/hr0.0 mm/hr 0.00 in0.0 mm
07:45 AM 58.5°F14.7°C 57.6°F14.2°C 97% 9.8 mph S15.8 kmh S 13.0 mph20.9 kmh 30.08 in1018.6 mb 0.00 in0.0 mm 0.00 in/hr0.0 mm/hr 0.00 in0.0 mm
07:30 AM 58.3°F14.6°C 57.4°F14.1°C 97% 9.3 mph S15.0 kmh S 11.4 mph18.3 kmh 30.08 in1018.6 mb 0.00 in0.0 mm 0.00 in/hr0.0 mm/hr 0.00 in0.0 mm
07:15 AM 58.1°F14.5°C 57.3°F14.1°C 97% 8.3 mph S13.4 kmh S 9.8 mph15.8 kmh 30.08 in1018.6 mb 0.00 in0.0 mm 0.00 in/hr0.0 mm/hr 0.00 in0.0 mm
07:00 AM 58.1°F14.5°C 57.3°F14.1°C 97% 10.7 mph S17.2 kmh S 14.5 mph23.3 kmh 30.07 in1018.3 mb 0.00 in0.0 mm 0.00 in/hr0.0 mm/hr 0.00 in0.0 mm
06:45 AM 58.1°F14.5°C 57.3°F14.1°C 97% 10.1 mph S16.3 kmh S 11.4 mph18.3 kmh 30.07 in1018.3 mb 0.00 in0.0 mm 0.00 in/hr0.0 mm/hr 0.00 in0.0 mm
06:30 AM 58.1°F14.5°C 57.3°F14.1°C 97% 9.8 mph S15.8 kmh S 13.6 mph21.9 kmh 30.07 in1018.3 mb 0.00 in0.0 mm 0.00 in/hr0.0 mm/hr 0.00 in0.0 mm
06:15 AM 58.1°F14.5°C 57.3°F14.1°C 97% 10.8 mph SSW17.4 kmh SSW 14.5 mph23.3 kmh 30.06 in1017.9 mb 0.00 in0.0 mm 0.00 in/hr0.0 mm/hr 0.00 in0.0 mm
06:00 AM 58.1°F14.5°C 57.3°F14.1°C 97% 10.2 mph S16.4 kmh S 13.0 mph20.9 kmh 30.07 in1018.3 mb 0.00 in0.0 mm 0.00 in/hr0.0 mm/hr 0.00 in0.0 mm
05:45 AM 58.1°F14.5°C 57.3°F14.1°C 97% 11.6 mph S18.7 kmh S 15.2 mph24.5 kmh 30.07 in1018.3 mb 0.00 in0.0 mm 0.00 in/hr0.0 mm/hr 0.00 in0.0 mm
05:30 AM 58.1°F14.5°C 57.3°F14.1°C 97% 12.2 mph S19.6 kmh S 15.9 mph25.6 kmh 30.07 in1018.3 mb 0.00 in0.0 mm 0.00 in/hr0.0 mm/hr 0.00 in0.0 mm
05:15 AM 58.1°F14.5°C 57.3°F14.1°C 97% 12.6 mph SSE20.3 kmh SSE 15.9 mph25.6 kmh 30.07 in1018.3 mb 0.00 in0.0 mm 0.00 in/hr0.0 mm/hr 0.00 in0.0 mm
05:00 AM 58.1°F14.5°C 57.3°F14.1°C 97% 12.7 mph S20.4 kmh S 15.9 mph25.6 kmh 30.06 in1017.9 mb 0.00 in0.0 mm 0.00 in/hr0.0 mm/hr 0.00 in0.0 mm
04:45 AM 58.3°F14.6°C 57.4°F14.1°C 97% 12.5 mph S20.1 kmh S 15.2 mph24.5 kmh 30.07 in1018.3 mb 0.00 in0.0 mm 0.00 in/hr0.0 mm/hr 0.00 in0.0 mm
04:30 AM 58.3°F14.6°C 57.4°F14.1°C 97% 12.9 mph S20.8 kmh S 15.2 mph24.5 kmh 30.07 in1018.3 mb 0.00 in0.0 mm 0.00 in/hr0.0 mm/hr 0.00 in0.0 mm
04:15 AM 58.5°F14.7°C 57.6°F14.2°C 97% 11.9 mph S19.2 kmh S 15.2 mph24.5 kmh 30.07 in1018.3 mb 0.00 in0.0 mm 0.00 in/hr0.0 mm/hr 0.00 in0.0 mm
04:00 AM 58.3°F14.6°C 57.4°F14.1°C 97% 13.0 mph S20.9 kmh S 16.8 mph27.0 kmh 30.07 in1018.3 mb 0.00 in0.0 mm 0.00 in/hr0.0 mm/hr 0.00 in0.0 mm
03:45 AM 58.6°F14.8°C 57.8°F14.3°C 97% 13.2 mph S21.2 kmh S 15.9 mph25.6 kmh 30.07 in1018.3 mb 0.00 in0.0 mm 0.00 in/hr0.0 mm/hr 0.00 in0.0 mm
03:30 AM 58.5°F14.7°C 57.6°F14.2°C 97% 12.6 mph S20.3 kmh S 14.5 mph23.3 kmh 30.07 in1018.3 mb 0.00 in0.0 mm 0.00 in/hr0.0 mm/hr 0.00 in0.0 mm
03:15 AM 58.5°F14.7°C 57.6°F14.2°C 97% 11.9 mph S19.2 kmh S 15.9 mph25.6 kmh 30.07 in1018.3 mb 0.00 in0.0 mm 0.00 in/hr0.0 mm/hr 0.00 in0.0 mm
03:00 AM 58.3°F14.6°C 57.4°F14.1°C 97% 13.8 mph S22.2 kmh S 16.8 mph27.0 kmh 30.07 in1018.3 mb 0.00 in0.0 mm 0.00 in/hr0.0 mm/hr 0.00 in0.0 mm
02:45 AM 58.5°F14.7°C 57.6°F14.2°C 97% 13.5 mph S21.7 kmh S 15.2 mph24.5 kmh 30.06 in1017.9 mb 0.00 in0.0 mm 0.00 in/hr0.0 mm/hr 0.00 in0.0 mm
02:30 AM 58.5°F14.7°C 57.6°F14.2°C 97% 13.7 mph S22.0 kmh S 17.4 mph28.0 kmh 30.07 in1018.3 mb 0.00 in0.0 mm 0.00 in/hr0.0 mm/hr 0.00 in0.0 mm
02:15 AM 58.5°F14.7°C 57.6°F14.2°C 97% 13.7 mph S22.0 kmh S 19.7 mph31.7 kmh 30.06 in1017.9 mb 0.00 in0.0 mm 0.00 in/hr0.0 mm/hr 0.00 in0.0 mm
02:00 AM 58.6°F14.8°C 57.8°F14.3°C 97% 12.3 mph S19.8 kmh S 16.8 mph27.0 kmh 30.07 in1018.3 mb 0.00 in0.0 mm 0.00 in/hr0.0 mm/hr 0.00 in0.0 mm
01:45 AM 59.0°F15.0°C 58.2°F14.6°C 97% 13.5 mph S21.7 kmh S 17.4 mph28.0 kmh 30.06 in1017.9 mb 0.00 in0.0 mm 0.00 in/hr0.0 mm/hr 0.00 in0.0 mm
01:30 AM 59.2°F15.1°C 58.3°F14.6°C 97% 14.0 mph S22.5 kmh S 16.8 mph27.0 kmh 30.07 in1018.3 mb 0.00 in0.0 mm 0.00 in/hr0.0 mm/hr 0.00 in0.0 mm
01:15 AM 59.2°F15.1°C 58.3°F14.6°C 97% 13.6 mph SSW21.9 kmh SSW 16.8 mph27.0 kmh 30.07 in1018.3 mb 0.00 in0.0 mm 0.00 in/hr0.0 mm/hr 0.00 in0.0 mm
01:00 AM 59.0°F15.0°C 58.2°F14.6°C 97% 13.5 mph S21.7 kmh S 17.4 mph28.0 kmh 30.07 in1018.3 mb 0.00 in0.0 mm 0.00 in/hr0.0 mm/hr 0.00 in0.0 mm
12:45 AM 59.2°F15.1°C 58.3°F14.6°C 97% 14.2 mph S22.9 kmh S 16.8 mph27.0 kmh 30.07 in1018.3 mb 0.00 in0.0 mm 0.00 in/hr0.0 mm/hr 0.00 in0.0 mm
12:30 AM 58.8°F14.9°C 58.0°F14.4°C 97% 14.1 mph S22.7 kmh S 19.0 mph30.6 kmh 30.08 in1018.6 mb 0.00 in0.0 mm 0.00 in/hr0.0 mm/hr 0.00 in0.0 mm
12:15 AM 58.6°F14.8°C 57.8°F14.3°C 97% 13.5 mph S21.7 kmh S 16.8 mph27.0 kmh 30.07 in1018.3 mb 0.00 in0.0 mm 0.00 in/hr0.0 mm/hr 0.00 in0.0 mm
12:00 AM 58.3°F14.6°C 57.4°F14.1°C 97% 13.8 mph S22.2 kmh S 16.8 mph27.0 kmh 30.08 in1018.6 mb 0.00 in0.0 mm 0.00 in/hr0.0 mm/hr 0.00 in0.0 mm